Time;durP1;ratioP1;P1;durP2;ratioP2;P2;SDS_P1;SDS_P2;PMS_P1;PMS_P2;Temp;Humidity;BMP_temperature;BMP_pressure;BME280_temperature;BME280_humidity;BME280_pressure;Samples;Min_cycle;Max_cycle;Signal;HPM_P1;HPM_P2
2023/07/25 00:04:58;;;;;;;7.03;5.57;;;20.30;99.90;;;;;;10366561;28;20310;-86
2023/07/25 00:10:01;;;;;;;4.80;4.40;;;20.30;99.90;;;;;;10339531;28;20208;-86
2023/07/25 00:15:04;;;;;;;4.33;4.03;;;20.30;99.90;;;;;;10351244;28;20227;-86
2023/07/25 00:20:07;;;;;;;4.20;3.90;;;20.20;99.90;;;;;;10346315;28;20208;-87
2023/07/25 00:25:11;;;;;;;4.03;3.80;;;20.20;99.90;;;;;;10351483;28;20659;-86
2023/07/25 00:30:13;;;;;;;5.00;4.50;;;20.20;99.90;;;;;;10348397;28;21011;-87
2023/07/25 00:35:17;;;;;;;6.63;4.10;;;20.20;99.90;;;;;;10348161;28;20782;-86
2023/07/25 00:40:20;;;;;;;4.50;4.10;;;20.20;99.90;;;;;;10352460;28;20299;-85
2023/07/25 00:45:25;;;;;;;4.33;3.93;;;20.20;99.90;;;;;;10350024;28;20242;-87
2023/07/25 00:50:27;;;;;;;4.50;4.20;;;20.20;99.90;;;;;;10349534;28;20231;-86
2023/07/25 00:55:31;;;;;;;4.93;4.53;;;20.20;99.90;;;;;;10365341;28;20319;-86
2023/07/25 01:00:33;;;;;;;4.23;3.93;;;20.20;99.90;;;;;;10361195;28;20214;-87
2023/07/25 01:05:39;;;;;;;4.20;3.90;;;20.20;99.90;;;;;;10347794;28;20230;-86
2023/07/25 01:10:43;;;;;;;4.63;4.33;;;20.20;99.90;;;;;;10361820;28;20220;-86
2023/07/25 01:15:45;;;;;;;3.90;3.60;;;20.10;99.90;;;;;;10332683;28;20270;-85
2023/07/25 01:20:48;;;;;;;4.00;3.80;;;20.10;99.90;;;;;;10350757;28;20199;-86
2023/07/25 01:25:52;;;;;;;4.27;3.97;;;20.00;99.90;;;;;;10340407;28;20643;-86
2023/07/25 01:30:54;;;;;;;4.17;3.87;;;20.00;99.90;;;;;;10362981;28;20225;-87
2023/07/25 01:35:56;;;;;;;6.50;4.73;;;20.00;99.90;;;;;;10335026;28;20255;-86
2023/07/25 01:40:59;;;;;;;4.43;4.13;;;20.00;99.90;;;;;;10353206;28;20295;-86
2023/07/25 01:46:02;;;;;;;4.60;4.20;;;19.90;99.90;;;;;;10359039;28;20713;-85
2023/07/25 01:51:04;;;;;;;4.43;4.13;;;19.90;99.90;;;;;;10358334;28;20231;-87
2023/07/25 01:56:07;;;;;;;4.23;3.90;;;19.90;99.90;;;;;;10357257;28;20219;-87
2023/07/25 02:01:09;;;;;;;4.87;4.57;;;19.90;99.90;;;;;;10364250;28;20234;-87
2023/07/25 02:06:12;;;;;;;4.00;3.80;;;19.80;99.90;;;;;;10357736;28;20235;-86
2023/07/25 02:11:15;;;;;;;4.50;4.20;;;19.80;99.90;;;;;;10356715;28;20237;-87
2023/07/25 02:16:17;;;;;;;4.60;4.30;;;19.70;99.90;;;;;;10365049;28;20714;-86
2023/07/25 02:21:19;;;;;;;4.43;4.10;;;19.70;99.90;;;;;;10364805;28;20203;-86
2023/07/25 02:26:23;;;;;;;4.10;3.90;;;19.70;99.90;;;;;;10373964;28;20277;-85
2023/07/25 02:31:25;;;;;;;5.87;5.37;;;19.70;99.90;;;;;;10364712;28;20227;-86
2023/07/25 02:36:27;;;;;;;5.40;4.90;;;19.70;99.90;;;;;;10371461;28;20227;-86
2023/07/25 02:41:31;;;;;;;3.20;3.00;;;19.70;99.90;;;;;;10356846;28;20203;-87
2023/07/25 02:46:33;;;;;;;5.57;4.30;;;19.70;99.90;;;;;;10333762;28;20690;-86
2023/07/25 02:51:35;;;;;;;4.50;4.20;;;19.70;99.90;;;;;;10366798;28;20760;-87
2023/07/25 02:56:38;;;;;;;4.50;4.20;;;19.60;99.90;;;;;;10354165;28;20223;-86
2023/07/25 03:01:40;;;;;;;4.73;4.43;;;19.50;99.90;;;;;;10354196;28;20199;-86
2023/07/25 03:06:42;;;;;;;4.27;4.07;;;19.50;99.90;;;;;;10371500;28;20219;-86
2023/07/25 03:11:49;;;;;;;4.70;4.30;;;19.50;99.90;;;;;;10361133;28;20321;-88
2023/07/25 03:16:51;;;;;;;5.63;4.87;;;19.50;99.90;;;;;;10361445;28;20317;-86
2023/07/25 03:21:53;;;;;;;4.80;4.50;;;19.50;99.90;;;;;;10352069;28;20250;-87
2023/07/25 03:26:56;;;;;;;4.30;4.10;;;19.60;99.90;;;;;;10355551;28;20714;-87
2023/07/25 03:31:59;;;;;;;4.97;4.43;;;19.70;99.90;;;;;;10353787;28;20231;-86
2023/07/25 03:37:01;;;;;;;4.17;3.77;;;19.60;99.90;;;;;;10355143;28;20278;-86
2023/07/25 03:42:05;;;;;;;4.87;4.50;;;19.70;99.90;;;;;;10353231;28;20253;-87
2023/07/25 03:47:07;;;;;;;4.77;3.93;;;19.80;99.90;;;;;;10354696;28;20214;-86
2023/07/25 03:52:09;;;;;;;6.90;3.90;;;19.80;99.90;;;;;;10353532;28;20231;-86
2023/07/25 03:57:13;;;;;;;3.57;3.37;;;19.90;99.90;;;;;;10352507;28;20235;-85
2023/07/25 04:02:15;;;;;;;3.83;3.53;;;19.90;99.90;;;;;;10353466;28;20569;-86
2023/07/25 04:07:17;;;;;;;4.40;4.10;;;20.00;99.90;;;;;;10353225;28;20222;-86
2023/07/25 04:12:20;;;;;;;4.33;4.03;;;20.00;99.90;;;;;;10352677;28;20301;-87
2023/07/25 04:17:22;;;;;;;4.17;3.87;;;20.00;99.90;;;;;;10349474;28;20207;-86
2023/07/25 04:22:24;;;;;;;4.60;4.20;;;20.10;99.90;;;;;;10352378;28;20199;-86
2023/07/25 04:27:30;;;;;;;4.40;4.10;;;20.10;99.90;;;;;;10365566;28;20598;-86
2023/07/25 04:32:32;;;;;;;4.67;4.27;;;20.10;99.90;;;;;;10348923;28;20237;-86
2023/07/25 04:37:34;;;;;;;4.80;4.33;;;20.10;99.90;;;;;;10351336;28;20210;-86
2023/07/25 04:42:38;;;;;;;4.57;4.10;;;20.00;99.90;;;;;;10350920;28;20310;-86
2023/07/25 04:47:40;;;;;;;3.90;3.60;;;20.00;99.90;;;;;;10366376;28;20642;-87
2023/07/25 04:52:42;;;;;;;4.20;3.90;;;20.00;99.90;;;;;;10345530;28;20587;-86
2023/07/25 04:57:45;;;;;;;3.80;3.60;;;20.00;99.90;;;;;;10350901;28;20298;-86
2023/07/25 05:02:48;;;;;;;3.90;3.70;;;20.00;99.90;;;;;;10365937;28;20647;-86
2023/07/25 05:07:50;;;;;;;4.37;3.97;;;20.00;99.90;;;;;;10347213;28;20210;-86
2023/07/25 05:12:53;;;;;;;3.10;2.90;;;20.00;99.90;;;;;;10364982;28;20268;-86
2023/07/25 05:17:55;;;;;;;4.37;4.00;;;20.00;99.90;;;;;;10359776;28;20212;-87
2023/07/25 05:22:57;;;;;;;4.20;3.90;;;20.10;99.90;;;;;;10369568;28;20223;-86
2023/07/25 05:28:01;;;;;;;4.70;3.33;;;20.20;99.90;;;;;;10359332;28;20294;-87
2023/07/25 05:33:03;;;;;;;3.83;3.63;;;20.20;99.90;;;;;;10360620;28;20722;-86
2023/07/25 05:38:07;;;;;;;4.30;4.00;;;20.20;99.90;;;;;;10359468;28;20199;-86
2023/07/25 05:43:12;;;;;;;4.60;4.30;;;20.30;99.90;;;;;;10355964;28;20234;-85
2023/07/25 05:48:14;;;;;;;3.77;3.47;;;20.40;99.90;;;;;;10354305;28;20311;-86
2023/07/25 05:53:16;;;;;;;9.33;5.10;;;20.40;99.90;;;;;;10360923;28;20223;-87
2023/07/25 05:58:19;;;;;;;5.37;4.97;;;20.40;99.90;;;;;;10366851;28;20596;-85
2023/07/25 06:03:22;;;;;;;11.60;10.40;;;20.40;99.90;;;;;;10357059;28;20687;-87
2023/07/25 06:08:24;;;;;;;13.70;10.20;;;20.10;99.90;;;;;;10357168;28;21038;-87
2023/07/25 06:13:27;;;;;;;18.17;11.50;;;19.60;99.90;;;;;;10356156;28;20231;-88
2023/07/25 06:18:29;;;;;;;11.30;10.43;;;19.30;99.90;;;;;;10357895;28;20337;-86
2023/07/25 06:23:31;;;;;;;12.63;11.73;;;19.10;99.90;;;;;;10334076;28;20288;-86
2023/07/25 06:28:35;;;;;;;9.93;9.03;;;19.00;99.90;;;;;;10357856;28;20211;-85
2023/07/25 06:33:37;;;;;;;11.43;10.73;;;19.00;99.90;;;;;;10355283;28;20282;-86
2023/07/25 06:38:39;;;;;;;11.67;10.70;;;18.90;99.90;;;;;;10346335;28;20227;-86
2023/07/25 06:43:42;;;;;;;11.23;10.53;;;18.90;99.90;;;;;;10354273;28;20643;-86
2023/07/25 06:48:45;;;;;;;11.10;10.40;;;18.90;99.90;;;;;;10352366;28;20203;-86
2023/07/25 06:53:47;;;;;;;10.67;9.97;;;18.90;99.90;;;;;;10354027;28;20566;-87
2023/07/25 06:58:50;;;;;;;11.03;10.23;;;19.00;99.90;;;;;;10350550;28;20286;-86
2023/07/25 07:03:52;;;;;;;12.03;11.20;;;19.00;99.90;;;;;;10369594;28;20690;-85
2023/07/25 07:08:54;;;;;;;10.90;10.30;;;19.00;99.90;;;;;;10368979;28;20215;-86
2023/07/25 07:13:58;;;;;;;12.60;11.60;;;19.00;99.90;;;;;;10355288;28;20587;-88
2023/07/25 07:19:00;;;;;;;9.93;9.13;;;18.90;99.90;;;;;;10357301;28;20211;-86
2023/07/25 07:24:02;;;;;;;9.80;9.10;;;18.90;99.90;;;;;;10356161;28;20262;-86
2023/07/25 07:29:06;;;;;;;11.20;10.50;;;18.90;99.90;;;;;;10371181;28;20681;-86
2023/07/25 07:34:13;;;;;;;13.00;12.00;;;18.90;99.90;;;;;;10362753;28;20235;-86
2023/07/25 07:39:15;;;;;;;12.80;11.97;;;18.90;99.90;;;;;;10359586;28;20215;-87
2023/07/25 07:44:18;;;;;;;11.40;10.70;;;19.00;99.90;;;;;;10351315;28;20251;-86
2023/07/25 07:49:20;;;;;;;9.07;8.47;;;19.10;99.90;;;;;;10358026;28;20207;-86
2023/07/25 07:54:23;;;;;;;12.87;11.97;;;19.30;99.90;;;;;;10358787;28;20230;-85
2023/07/25 07:59:26;;;;;;;10.03;9.43;;;19.60;99.90;;;;;;10354993;28;20246;-86
2023/07/25 08:04:29;;;;;;;9.07;8.57;;;20.00;99.90;;;;;;10355969;28;20683;-87
2023/07/25 08:09:31;;;;;;;11.00;10.30;;;20.30;99.90;;;;;;10353156;28;20234;-85
2023/07/25 08:14:34;;;;;;;9.63;9.13;;;20.60;99.90;;;;;;10353482;28;20792;-86
2023/07/25 08:19:36;;;;;;;7.20;6.70;;;21.00;99.90;;;;;;10362280;28;20231;-89
2023/07/25 08:24:39;;;;;;;4.37;4.17;;;21.30;99.90;;;;;;10368393;28;20227;-86
2023/07/25 08:29:46;;;;;;;7.33;6.93;;;21.30;99.90;;;;;;10352233;28;20760;-87
2023/07/25 08:34:48;;;;;;;5.93;5.40;;;21.30;99.90;;;;;;10353682;28;20227;-86
2023/07/25 08:39:50;;;;;;;6.00;5.60;;;21.20;99.90;;;;;;10351841;28;20623;-85
2023/07/25 08:44:56;;;;;;;7.10;6.67;;;21.10;99.90;;;;;;10352039;28;20780;-86
2023/07/25 08:50:01;;;;;;;7.03;6.63;;;21.20;99.90;;;;;;10372574;28;20211;-85
2023/07/25 08:55:03;;;;;;;6.40;6.10;;;21.60;99.90;;;;;;10375356;28;20333;-87
2023/07/25 09:00:08;;;;;;;6.57;6.27;;;21.80;99.90;;;;;;10362025;28;20297;-88
2023/07/25 09:05:11;;;;;;;6.40;5.90;;;22.00;99.90;;;;;;10361443;28;20219;-85
2023/07/25 09:10:13;;;;;;;5.93;5.60;;;22.20;99.90;;;;;;10360913;28;20258;-86
2023/07/25 09:15:16;;;;;;;10.40;5.60;;;22.00;99.90;;;;;;10330724;23;21239;-81
2023/07/25 09:20:19;;;;;;;5.70;5.37;;;21.60;99.90;;;;;;10254626;28;20677;-77
2023/07/25 09:25:22;;;;;;;5.90;5.50;;;21.30;99.90;;;;;;10254978;28;20235;-82
2023/07/25 09:30:28;;;;;;;5.40;5.00;;;21.10;99.90;;;;;;10251957;28;20233;-81
2023/07/25 09:35:30;;;;;;;40.03;11.07;;;21.20;99.90;;;;;;10255161;28;20239;-82
2023/07/25 09:40:38;;;;;;;10.53;4.97;;;21.60;99.90;;;;;;10255848;28;20567;-82
2023/07/25 09:45:42;;;;;;;4.07;3.23;;;22.10;99.90;;;;;;10256996;28;20236;-82
2023/07/25 09:50:45;;;;;;;4.17;3.33;;;22.50;99.90;;;;;;10265311;28;21257;-82
2023/07/25 09:55:47;;;;;;;6.93;2.53;;;23.10;99.90;;;;;;10254747;28;20251;-82
2023/07/25 10:00:51;;;;;;;3.03;2.83;;;23.70;99.90;;;;;;10251241;28;20344;-80
2023/07/25 10:05:53;;;;;;;2.30;2.20;;;24.30;99.90;;;;;;10262577;28;20251;-80
2023/07/25 10:10:56;;;;;;;2.80;2.60;;;25.00;99.90;;;;;;10261110;28;20214;-80
2023/07/25 10:16:00;;;;;;;2.10;1.90;;;25.30;99.90;;;;;;10251260;28;20225;-82
2023/07/25 10:21:02;;;;;;;2.47;2.37;;;25.50;99.90;;;;;;10246834;28;20232;-80
2023/07/25 10:26:12;;;;;;;2.10;2.00;;;26.00;99.90;;;;;;10248331;28;20220;-78
2023/07/25 10:31:24;;;;;;;2.20;2.10;;;26.00;99.90;;;;;;10246970;28;20293;-82
2023/07/25 10:36:26;;;;;;;2.17;2.00;;;25.90;99.90;;;;;;10251097;28;20229;-81
2023/07/25 10:41:28;;;;;;;1.90;1.80;;;25.60;99.90;;;;;;10247433;28;20300;-81
2023/07/25 10:46:33;;;;;;;2.10;1.90;;;25.40;99.90;;;;;;10250974;28;20229;-81
2023/07/25 10:51:51;;;;;;;2.03;1.93;;;25.20;99.90;;;;;;10263450;28;20209;-81
2023/07/25 10:57:14;;;;;;;2.63;2.43;;;24.70;99.90;;;;;;10251067;28;20238;-81
2023/07/25 11:02:32;;;;;;;2.90;1.97;;;23.90;99.90;;;;;;10263069;28;20213;-82
2023/07/25 11:07:35;;;;;;;3.83;2.10;;;23.20;99.90;;;;;;10252758;28;20224;-81
2023/07/25 11:12:38;;;;;;;3.57;2.40;;;22.60;99.90;;;;;;10271977;28;20216;-80
2023/07/25 11:17:42;;;;;;;2.50;2.30;;;22.10;99.90;;;;;;10264264;28;20598;-80
2023/07/25 11:22:45;;;;;;;3.30;2.20;;;22.10;99.90;;;;;;10249558;28;20666;-80
2023/07/25 11:27:48;;;;;;;1.90;1.80;;;22.40;99.90;;;;;;10248953;28;20224;-80
2023/07/25 11:32:53;;;;;;;2.43;2.23;;;22.70;99.90;;;;;;10243899;28;20245;-81
2023/07/25 11:38:00;;;;;;;1.77;1.67;;;22.80;99.90;;;;;;10244142;28;20284;-81
2023/07/25 11:43:10;;;;;;;1.80;1.70;;;22.80;99.90;;;;;;10246816;28;20205;-80
2023/07/25 11:48:15;;;;;;;1.93;1.77;;;22.70;99.90;;;;;;10248518;28;20472;-80
2023/07/25 11:53:19;;;;;;;2.20;2.10;;;22.60;99.90;;;;;;10247375;28;20581;-81
2023/07/25 11:58:21;;;;;;;1.90;1.80;;;22.70;99.90;;;;;;10247684;28;20732;-79
2023/07/25 12:03:26;;;;;;;2.57;1.80;;;22.80;99.90;;;;;;10246769;28;20284;-80
2023/07/25 12:08:33;;;;;;;1.97;1.77;;;23.00;99.90;;;;;;10247227;28;20208;-81
2023/07/25 12:13:43;;;;;;;1.67;1.57;;;23.30;99.90;;;;;;10246734;28;20240;-80
2023/07/25 12:18:52;;;;;;;1.50;1.40;;;23.20;99.50;;;;;;10245768;28;20205;-77
2023/07/25 12:23:55;;;;;;;2.47;1.53;;;22.80;99.90;;;;;;10247233;28;20225;-77
2023/07/25 12:28:59;;;;;;;1.50;1.40;;;22.40;99.90;;;;;;10247347;28;20212;-78
2023/07/25 12:34:02;;;;;;;4.90;1.70;;;22.10;99.90;;;;;;10247178;28;20229;-80
2023/07/25 12:39:05;;;;;;;1.80;1.70;;;21.80;99.90;;;;;;10248553;28;20235;-79
2023/07/25 12:44:07;;;;;;;2.00;1.90;;;21.60;99.90;;;;;;10248878;28;20217;-81
2023/07/25 12:49:11;;;;;;;1.93;1.80;;;21.60;99.90;;;;;;10247827;28;20626;-80
2023/07/25 12:54:13;;;;;;;1.63;1.53;;;21.80;99.90;;;;;;10247356;28;20348;-80
2023/07/25 12:59:15;;;;;;;2.43;2.23;;;22.00;99.90;;;;;;10251065;28;20236;-79
2023/07/25 13:04:19;;;;;;;2.07;1.87;;;21.80;99.90;;;;;;10243805;28;20237;-80
2023/07/25 13:09:21;;;;;;;1.67;1.57;;;21.50;99.90;;;;;;10244258;28;20321;-79
2023/07/25 13:14:23;;;;;;;1.50;1.40;;;21.30;99.90;;;;;;10243142;28;21181;-80
2023/07/25 13:19:27;;;;;;;1.83;1.73;;;21.30;99.90;;;;;;10244938;28;21217;-81
2023/07/25 13:24:29;;;;;;;1.60;1.50;;;21.40;99.90;;;;;;10245210;28;20237;-81
2023/07/25 13:29:31;;;;;;;3.93;1.93;;;21.60;99.90;;;;;;10254278;28;20220;-80
2023/07/25 13:34:34;;;;;;;2.03;1.90;;;21.70;99.90;;;;;;10247074;28;20375;-79
2023/07/25 13:39:36;;;;;;;3.33;3.00;;;21.70;99.90;;;;;;10252956;28;20212;-81
2023/07/25 13:44:38;;;;;;;1.83;1.73;;;21.60;99.90;;;;;;10251306;28;20841;-79
2023/07/25 13:49:42;;;;;;;1.70;1.60;;;21.50;99.90;;;;;;10252017;28;20271;-81
2023/07/25 13:54:44;;;;;;;2.83;1.60;;;21.40;99.90;;;;;;10245874;28;20375;-81
2023/07/25 13:59:46;;;;;;;2.20;2.10;;;21.50;99.90;;;;;;10250648;28;20205;-80
2023/07/25 14:04:49;;;;;;;4.50;2.10;;;21.50;99.90;;;;;;10248397;28;20428;-80
2023/07/25 14:09:51;;;;;;;1.50;1.40;;;21.50;99.90;;;;;;10251013;28;20217;-81
2023/07/25 14:14:53;;;;;;;1.90;1.80;;;21.30;99.90;;;;;;10246714;28;20316;-80
2023/07/25 14:19:57;;;;;;;2.20;2.03;;;21.10;99.90;;;;;;10248974;28;20231;-79
2023/07/25 14:24:59;;;;;;;2.80;1.87;;;21.00;99.90;;;;;;10251452;28;20604;-80
2023/07/25 14:30:03;;;;;;;1.87;1.77;;;21.00;99.90;;;;;;10251984;28;20605;-81
2023/07/25 14:35:07;;;;;;;1.77;1.67;;;20.80;99.90;;;;;;10250933;28;20255;-80
2023/07/25 14:40:10;;;;;;;1.90;1.80;;;20.70;99.90;;;;;;10249423;28;20205;-80
2023/07/25 14:45:13;;;;;;;2.00;1.90;;;20.80;99.90;;;;;;10247776;28;20615;-80
2023/07/25 14:50:17;;;;;;;2.43;2.23;;;21.00;99.90;;;;;;10249174;28;20223;-79
2023/07/25 14:55:19;;;;;;;1.90;1.80;;;21.20;99.90;;;;;;10248203;28;20375;-78
2023/07/25 15:00:21;;;;;;;2.23;2.00;;;21.40;99.90;;;;;;10247970;28;20210;-80
2023/07/25 15:05:25;;;;;;;1.87;1.77;;;21.60;99.90;;;;;;10249791;28;20320;-79
2023/07/25 15:10:27;;;;;;;2.57;1.80;;;21.50;99.90;;;;;;10250932;28;20207;-81
2023/07/25 15:15:29;;;;;;;2.27;2.17;;;21.40;99.90;;;;;;10318157;23;21495;-86
2023/07/25 15:20:33;;;;;;;2.03;1.93;;;21.30;99.90;;;;;;10361079;28;20203;-89
2023/07/25 15:25:35;;;;;;;1.70;1.60;;;21.30;99.90;;;;;;10351403;28;20235;-86
2023/07/25 15:30:37;;;;;;;1.97;1.87;;;21.20;99.90;;;;;;10333366;28;20613;-88
2023/07/25 15:35:40;;;;;;;2.00;1.90;;;21.10;99.90;;;;;;10328896;28;20267;-85
2023/07/25 15:40:42;;;;;;;2.50;2.40;;;21.00;99.90;;;;;;10328636;28;20293;-86
2023/07/25 15:45:45;;;;;;;2.90;2.70;;;20.90;99.90;;;;;;10332673;28;20247;-86
2023/07/25 15:50:48;;;;;;;2.30;2.20;;;20.80;99.90;;;;;;10331072;28;20200;-86
2023/07/25 15:55:51;;;;;;;2.30;2.20;;;20.60;99.90;;;;;;10337153;28;20228;-86
2023/07/25 16:00:53;;;;;;;2.67;2.47;;;20.60;99.90;;;;;;10330991;28;20207;-86
2023/07/25 16:05:57;;;;;;;2.57;2.47;;;20.40;99.90;;;;;;10332323;28;20219;-86
2023/07/25 16:10:59;;;;;;;3.07;2.83;;;20.20;99.90;;;;;;10332777;28;20261;-86
2023/07/25 16:16:01;;;;;;;2.90;2.70;;;20.00;99.90;;;;;;10331935;28;20229;-86
2023/07/25 16:21:04;;;;;;;3.67;3.37;;;19.70;99.90;;;;;;10333025;28;20215;-86
2023/07/25 16:26:07;;;;;;;3.27;3.07;;;19.50;99.90;;;;;;10331281;28;20327;-86
2023/07/25 16:31:09;;;;;;;3.53;3.33;;;19.40;99.90;;;;;;10343353;28;20214;-87
2023/07/25 16:36:12;;;;;;;3.20;3.00;;;19.30;99.90;;;;;;10315110;28;20644;-86
2023/07/25 16:41:17;;;;;;;3.33;3.13;;;19.30;99.90;;;;;;10330628;28;20239;-87
2023/07/25 16:46:19;;;;;;;3.00;2.90;;;19.40;99.90;;;;;;10348346;28;20262;-89
2023/07/25 16:51:24;;;;;;;2.93;2.70;;;19.50;99.90;;;;;;10339579;28;20255;-86
2023/07/25 16:56:26;;;;;;;2.67;2.47;;;19.70;99.90;;;;;;10328240;28;20706;-85
2023/07/25 17:01:29;;;;;;;2.43;2.33;;;19.80;99.90;;;;;;10336011;28;20208;-86
2023/07/25 17:06:32;;;;;;;1.83;1.73;;;19.90;99.90;;;;;;10340052;28;20658;-85
2023/07/25 17:11:35;;;;;;;1.90;1.80;;;20.00;99.90;;;;;;10349144;28;20208;-86
2023/07/25 17:16:37;;;;;;;1.97;1.87;;;20.00;99.90;;;;;;10369804;28;20365;-89
2023/07/25 17:21:41;;;;;;;2.40;2.30;;;19.90;99.90;;;;;;10370113;28;20303;-85
2023/07/25 17:26:43;;;;;;;1.90;1.80;;;19.70;99.90;;;;;;10351457;28;20237;-87
2023/07/25 17:31:45;;;;;;;3.40;3.10;;;19.60;99.90;;;;;;10354136;28;20200;-86
2023/07/25 17:36:49;;;;;;;2.40;2.20;;;19.50;99.90;;;;;;10369478;28;20223;-88
2023/07/25 17:41:51;;;;;;;2.40;2.30;;;19.40;99.90;;;;;;10376244;28;20212;-87
2023/07/25 17:46:53;;;;;;;2.73;2.63;;;19.30;99.90;;;;;;10368068;28;20299;-87
2023/07/25 17:51:56;;;;;;;2.83;2.63;;;19.20;99.90;;;;;;10345356;28;20208;-87
2023/07/25 17:56:58;;;;;;;3.20;3.00;;;19.10;99.90;;;;;;10360896;28;20748;-87
2023/07/25 18:02:00;;;;;;;3.63;3.43;;;19.00;99.90;;;;;;10356609;28;20204;-87
2023/07/25 18:07:04;;;;;;;3.37;3.17;;;18.90;99.90;;;;;;10364271;28;20219;-87
2023/07/25 18:12:08;;;;;;;3.67;3.43;;;18.90;99.90;;;;;;10352672;28;20204;-86
2023/07/25 18:17:10;;;;;;;4.27;3.97;;;18.80;99.90;;;;;;10335191;28;20227;-87
2023/07/25 18:22:13;;;;;;;3.70;3.50;;;18.80;99.90;;;;;;10334517;28;20231;-86
2023/07/25 18:27:15;;;;;;;4.10;3.80;;;18.70;99.90;;;;;;10337947;28;20219;-86
2023/07/25 18:32:17;;;;;;;4.57;4.17;;;18.60;99.90;;;;;;10334231;28;20217;-86
2023/07/25 18:37:21;;;;;;;5.40;5.00;;;18.50;99.90;;;;;;10333555;28;20227;-86
2023/07/25 18:42:23;;;;;;;6.10;5.60;;;18.40;99.90;;;;;;10336603;28;20200;-86
2023/07/25 18:47:25;;;;;;;6.30;5.80;;;18.20;99.90;;;;;;10336118;28;21020;-86
2023/07/25 18:52:29;;;;;;;5.83;5.43;;;18.10;99.90;;;;;;10322266;28;20207;-86
2023/07/25 18:57:31;;;;;;;6.27;5.87;;;18.00;99.90;;;;;;10336555;28;20239;-85
2023/07/25 19:02:33;;;;;;;5.90;5.50;;;18.00;99.90;;;;;;10335591;28;20270;-86
2023/07/25 19:07:37;;;;;;;6.57;6.07;;;17.90;99.90;;;;;;10332485;28;20230;-85
2023/07/25 19:12:39;;;;;;;6.60;6.20;;;17.90;99.90;;;;;;10341546;28;20212;-86
2023/07/25 19:17:43;;;;;;;7.30;6.80;;;17.80;99.90;;;;;;10348193;28;20265;-86
2023/07/25 19:22:47;;;;;;;7.20;6.60;;;17.70;99.90;;;;;;10335200;28;20664;-85
2023/07/25 19:27:49;;;;;;;7.13;6.63;;;17.70;99.90;;;;;;10324437;28;20490;-85
2023/07/25 19:32:51;;;;;;;7.83;7.23;;;17.70;99.90;;;;;;10342498;28;20211;-85
2023/07/25 19:37:54;;;;;;;7.30;6.77;;;17.70;99.90;;;;;;10373081;28;20606;-85
2023/07/25 19:42:56;;;;;;;8.60;7.90;;;17.80;99.90;;;;;;10334339;28;20208;-87
2023/07/25 19:48:00;;;;;;;8.07;6.77;;;17.70;99.90;;;;;;10334078;28;20239;-86
2023/07/25 19:53:03;;;;;;;8.50;7.80;;;17.70;99.90;;;;;;10333603;28;20216;-85
2023/07/25 19:58:05;;;;;;;6.80;6.40;;;17.70;99.90;;;;;;10334639;28;20374;-85
2023/07/25 20:03:07;;;;;;;7.37;6.77;;;17.70;99.90;;;;;;10331999;28;20208;-86
2023/07/25 20:08:11;;;;;;;7.80;7.10;;;17.60;99.90;;;;;;10335900;28;20695;-85
2023/07/25 20:13:13;;;;;;;7.83;7.33;;;17.60;99.90;;;;;;10333323;28;20259;-86
2023/07/25 20:18:15;;;;;;;7.77;7.07;;;17.70;99.90;;;;;;10332981;28;20317;-87
2023/07/25 20:23:19;;;;;;;7.77;7.20;;;17.70;99.90;;;;;;10333757;28;20258;-87
2023/07/25 20:28:22;;;;;;;10.70;9.73;;;17.60;99.90;;;;;;10341373;28;20231;-85
2023/07/25 20:33:24;;;;;;;9.47;8.87;;;17.50;99.90;;;;;;10345867;28;20210;-87
2023/07/25 20:38:27;;;;;;;9.33;8.60;;;17.50;99.90;;;;;;10335266;28;20239;-85
2023/07/25 20:43:30;;;;;;;10.37;9.53;;;17.40;99.90;;;;;;10337537;28;20218;-86
2023/07/25 20:48:34;;;;;;;11.53;10.73;;;17.30;99.90;;;;;;10358441;28;20215;-85
2023/07/25 20:53:38;;;;;;;11.67;10.90;;;17.30;99.90;;;;;;10340565;28;20227;-85
2023/07/25 20:58:40;;;;;;;14.20;13.23;;;17.20;99.90;;;;;;10357727;28;20224;-86
2023/07/25 21:03:42;;;;;;;14.87;13.57;;;17.20;99.90;;;;;;10344486;28;20227;-85
2023/07/25 21:08:46;;;;;;;14.90;13.60;;;17.20;99.90;;;;;;10341815;28;20201;-86
2023/07/25 21:13:48;;;;;;;14.57;13.57;;;17.10;99.90;;;;;;10340972;28;20320;-86
2023/07/25 21:18:50;;;;;;;15.80;14.80;;;17.00;99.90;;;;;;10342506;28;20239;-86
2023/07/25 21:23:54;;;;;;;15.43;14.10;;;16.90;99.90;;;;;;10341454;28;20244;-86
2023/07/25 21:28:56;;;;;;;15.17;13.93;;;16.80;99.90;;;;;;10339450;28;20204;-85
2023/07/25 21:34:01;;;;;;;17.43;15.97;;;16.70;99.90;;;;;;10339863;28;20247;-86
2023/07/25 21:39:05;;;;;;;16.53;15.23;;;16.70;99.90;;;;;;10345206;28;20595;-86
2023/07/25 21:44:07;;;;;;;16.17;14.77;;;16.70;99.90;;;;;;10340456;28;20234;-87
2023/07/25 21:49:09;;;;;;;15.27;14.10;;;16.70;99.90;;;;;;10343288;28;20204;-85
2023/07/25 21:54:13;;;;;;;16.77;15.30;;;16.70;99.90;;;;;;10334833;28;20363;-86
2023/07/25 21:59:15;;;;;;;15.90;14.70;;;16.80;99.90;;;;;;10339087;28;20234;-85
2023/07/25 22:04:17;;;;;;;14.63;13.53;;;16.80;99.90;;;;;;10338748;28;20319;-86
2023/07/25 22:09:20;;;;;;;13.70;12.70;;;16.90;99.90;;;;;;10340801;28;20298;-86
2023/07/25 22:14:23;;;;;;;14.30;13.30;;;16.90;99.90;;;;;;10338458;28;20262;-86
2023/07/25 22:19:25;;;;;;;14.07;12.97;;;16.90;99.90;;;;;;10340035;28;20320;-87
2023/07/25 22:24:28;;;;;;;14.60;13.40;;;17.00;99.90;;;;;;10337599;28;20228;-89
2023/07/25 22:29:30;;;;;;;14.57;13.47;;;17.00;99.90;;;;;;10358430;28;20870;-85
2023/07/25 22:34:32;;;;;;;12.67;11.77;;;17.10;99.90;;;;;;10338002;28;20216;-85
2023/07/25 22:39:36;;;;;;;13.33;12.40;;;17.10;99.90;;;;;;10337504;28;20314;-86
2023/07/25 22:44:38;;;;;;;12.27;11.27;;;17.10;99.90;;;;;;10344870;28;20637;-86
2023/07/25 22:49:40;;;;;;;12.70;11.73;;;17.10;99.90;;;;;;10343535;28;20233;-86
2023/07/25 22:54:43;;;;;;;13.93;12.83;;;17.10;99.90;;;;;;10336853;28;20232;-86
2023/07/25 22:59:45;;;;;;;13.00;11.80;;;17.20;99.90;;;;;;10350589;28;20295;-84
2023/07/25 23:04:47;;;;;;;13.70;12.50;;;17.20;99.90;;;;;;10338421;28;20223;-86
2023/07/25 23:09:52;;;;;;;11.67;10.77;;;17.30;99.90;;;;;;10350382;28;20230;-85
2023/07/25 23:14:54;;;;;;;12.40;11.40;;;17.30;99.90;;;;;;10335929;28;20306;-87
2023/07/25 23:19:56;;;;;;;12.03;11.00;;;17.30;99.90;;;;;;10340685;28;20674;-86
2023/07/25 23:25:00;;;;;;;11.90;11.00;;;17.20;99.90;;;;;;10339026;28;20221;-86
2023/07/25 23:30:03;;;;;;;12.53;11.63;;;17.20;99.90;;;;;;10343729;28;20211;-86
2023/07/25 23:35:06;;;;;;;12.63;11.53;;;17.20;99.90;;;;;;10348361;28;20235;-87
2023/07/25 23:40:11;;;;;;;12.73;11.70;;;17.20;99.90;;;;;;10343798;28;20208;-86
2023/07/25 23:45:13;;;;;;;11.80;10.87;;;17.20;99.90;;;;;;10339949;28;20301;-86
2023/07/25 23:50:16;;;;;;;12.87;11.77;;;17.20;99.90;;;;;;10330817;28;20287;-86
2023/07/25 23:55:19;;;;;;;14.70;13.40;;;17.30;99.90;;;;;;10347368;28;20223;-86
